sensor_id;sensor_type;location;lat;lon;timestamp;P1;durP1;ratioP1;P2;durP2;ratioP2
39970;SDS011;35425;51.142;17.178;2023-03-20T00:01:12;11.13;;;9.95;;
39970;SDS011;35425;51.142;17.178;2023-03-20T00:03:39;11.13;;;10.02;;
39970;SDS011;35425;51.142;17.178;2023-03-20T00:06:14;12.10;;;10.43;;
39970;SDS011;35425;51.142;17.178;2023-03-20T00:08:41;11.32;;;10.13;;
39970;SDS011;35425;51.142;17.178;2023-03-20T00:13:58;10.27;;;8.98;;
39970;SDS011;35425;51.142;17.178;2023-03-20T00:16:26;10.48;;;9.40;;
39970;SDS011;35425;51.142;17.178;2023-03-20T00:18:55;10.25;;;9.15;;
39970;SDS011;35425;51.142;17.178;2023-03-20T00:21:22;10.50;;;9.40;;
39970;SDS011;35425;51.142;17.178;2023-03-20T00:23:52;10.93;;;9.82;;
39970;SDS011;35425;51.142;17.178;2023-03-20T00:26:20;10.50;;;9.35;;
39970;SDS011;35425;51.142;17.178;2023-03-20T00:28:48;10.27;;;9.23;;
39970;SDS011;35425;51.142;17.178;2023-03-20T00:33:48;8.95;;;8.05;;
39970;SDS011;35425;51.142;17.178;2023-03-20T00:36:15;10.57;;;8.88;;
39970;SDS011;35425;51.142;17.178;2023-03-20T00:38:42;9.60;;;8.60;;
39970;SDS011;35425;51.142;17.178;2023-03-20T00:41:22;9.93;;;8.88;;
39970;SDS011;35425;51.142;17.178;2023-03-20T00:43:51;9.23;;;8.32;;
39970;SDS011;35425;51.142;17.178;2023-03-20T00:46:19;8.85;;;7.95;;
39970;SDS011;35425;51.142;17.178;2023-03-20T00:48:46;9.50;;;8.55;;
39970;SDS011;35425;51.142;17.178;2023-03-20T00:51:14;9.10;;;8.18;;
39970;SDS011;35425;51.142;17.178;2023-03-20T00:53:41;9.23;;;8.30;;
39970;SDS011;35425;51.142;17.178;2023-03-20T00:56:16;9.35;;;7.85;;
39970;SDS011;35425;51.142;17.178;2023-03-20T00:58:51;8.80;;;7.90;;
39970;SDS011;35425;51.142;17.178;2023-03-20T01:01:17;10.00;;;9.00;;
39970;SDS011;35425;51.142;17.178;2023-03-20T01:03:44;9.57;;;8.38;;
39970;SDS011;35425;51.142;17.178;2023-03-20T01:06:12;8.60;;;7.70;;
39970;SDS011;35425;51.142;17.178;2023-03-20T01:08:39;9.48;;;8.40;;
39970;SDS011;35425;51.142;17.178;2023-03-20T01:11:08;8.90;;;7.97;;
39970;SDS011;35425;51.142;17.178;2023-03-20T01:13:36;8.80;;;7.90;;
39970;SDS011;35425;51.142;17.178;2023-03-20T01:16:03;8.13;;;7.15;;
39970;SDS011;35425;51.142;17.178;2023-03-20T01:18:30;9.32;;;8.18;;
39970;SDS011;35425;51.142;17.178;2023-03-20T01:20:57;8.82;;;7.93;;
39970;SDS011;35425;51.142;17.178;2023-03-20T01:23:23;8.50;;;7.70;;
39970;SDS011;35425;51.142;17.178;2023-03-20T01:25:51;8.10;;;7.30;;
39970;SDS011;35425;51.142;17.178;2023-03-20T01:28:19;8.52;;;7.40;;
39970;SDS011;35425;51.142;17.178;2023-03-20T01:30:47;8.57;;;7.60;;
39970;SDS011;35425;51.142;17.178;2023-03-20T01:33:15;8.48;;;7.57;;
39970;SDS011;35425;51.142;17.178;2023-03-20T01:35:42;7.80;;;7.00;;
39970;SDS011;35425;51.142;17.178;2023-03-20T01:38:10;7.72;;;6.93;;
39970;SDS011;35425;51.142;17.178;2023-03-20T01:43:18;8.05;;;7.25;;
39970;SDS011;35425;51.142;17.178;2023-03-20T01:51:21;8.70;;;7.80;;
39970;SDS011;35425;51.142;17.178;2023-03-20T01:53:50;8.43;;;7.25;;
39970;SDS011;35425;51.142;17.178;2023-03-20T01:56:17;8.32;;;7.45;;
39970;SDS011;35425;51.142;17.178;2023-03-20T01:59:08;8.02;;;7.03;;
39970;SDS011;35425;51.142;17.178;2023-03-20T02:01:33;7.35;;;6.65;;
39970;SDS011;35425;51.142;17.178;2023-03-20T02:04:04;7.07;;;6.38;;
39970;SDS011;35425;51.142;17.178;2023-03-20T02:06:31;8.32;;;7.28;;
39970;SDS011;35425;51.142;17.178;2023-03-20T02:08:58;7.32;;;6.63;;
39970;SDS011;35425;51.142;17.178;2023-03-20T02:11:25;7.35;;;6.53;;
39970;SDS011;35425;51.142;17.178;2023-03-20T02:13:53;8.18;;;7.18;;
39970;SDS011;35425;51.142;17.178;2023-03-20T02:16:20;8.18;;;7.20;;
39970;SDS011;35425;51.142;17.178;2023-03-20T02:18:48;7.35;;;6.55;;
39970;SDS011;35425;51.142;17.178;2023-03-20T02:26:55;7.40;;;6.57;;
39970;SDS011;35425;51.142;17.178;2023-03-20T02:29:35;7.53;;;6.82;;
39970;SDS011;35425;51.142;17.178;2023-03-20T02:32:16;6.68;;;5.97;;
39970;SDS011;35425;51.142;17.178;2023-03-20T02:34:55;7.25;;;6.55;;
39970;SDS011;35425;51.142;17.178;2023-03-20T02:45:13;6.35;;;5.75;;
39970;SDS011;35425;51.142;17.178;2023-03-20T02:47:47;7.93;;;6.32;;
39970;SDS011;35425;51.142;17.178;2023-03-20T02:55:36;6.15;;;5.43;;
39970;SDS011;35425;51.142;17.178;2023-03-20T02:58:16;6.32;;;5.72;;
39970;SDS011;35425;51.142;17.178;2023-03-20T03:00:53;6.40;;;5.80;;
39970;SDS011;35425;51.142;17.178;2023-03-20T03:03:23;6.05;;;5.45;;
39970;SDS011;35425;51.142;17.178;2023-03-20T03:05:56;5.97;;;5.38;;
39970;SDS011;35425;51.142;17.178;2023-03-20T03:08:28;5.75;;;5.18;;
39970;SDS011;35425;51.142;17.178;2023-03-20T03:11:01;5.85;;;5.25;;
39970;SDS011;35425;51.142;17.178;2023-03-20T03:13:29;6.43;;;5.82;;
39970;SDS011;35425;51.142;17.178;2023-03-20T03:16:02;5.93;;;5.22;;
39970;SDS011;35425;51.142;17.178;2023-03-20T03:18:32;6.55;;;5.60;;
39970;SDS011;35425;51.142;17.178;2023-03-20T03:21:02;6.15;;;5.55;;
39970;SDS011;35425;51.142;17.178;2023-03-20T03:23:31;5.55;;;5.05;;
39970;SDS011;35425;51.142;17.178;2023-03-20T03:25:59;5.70;;;5.20;;
39970;SDS011;35425;51.142;17.178;2023-03-20T03:28:39;5.20;;;4.70;;
39970;SDS011;35425;51.142;17.178;2023-03-20T03:31:10;5.47;;;4.97;;
39970;SDS011;35425;51.142;17.178;2023-03-20T03:33:38;6.30;;;5.70;;
39970;SDS011;35425;51.142;17.178;2023-03-20T03:49:01;5.15;;;4.38;;
39970;SDS011;35425;51.142;17.178;2023-03-20T03:51:29;5.03;;;4.45;;
39970;SDS011;35425;51.142;17.178;2023-03-20T03:54:33;4.95;;;4.47;;
39970;SDS011;35425;51.142;17.178;2023-03-20T03:56:51;5.10;;;4.60;;
39970;SDS011;35425;51.142;17.178;2023-03-20T03:59:25;4.78;;;4.28;;
39970;SDS011;35425;51.142;17.178;2023-03-20T04:01:53;4.70;;;4.30;;
39970;SDS011;35425;51.142;17.178;2023-03-20T04:04:20;4.60;;;4.20;;
39970;SDS011;35425;51.142;17.178;2023-03-20T04:06:47;5.20;;;4.70;;
39970;SDS011;35425;51.142;17.178;2023-03-20T04:09:14;4.70;;;4.25;;
39970;SDS011;35425;51.142;17.178;2023-03-20T04:11:41;4.65;;;4.18;;
39970;SDS011;35425;51.142;17.178;2023-03-20T04:14:08;4.60;;;4.07;;
39970;SDS011;35425;51.142;17.178;2023-03-20T04:16:35;4.75;;;4.07;;
39970;SDS011;35425;51.142;17.178;2023-03-20T04:19:03;4.25;;;3.85;;
39970;SDS011;35425;51.142;17.178;2023-03-20T04:21:30;4.55;;;4.15;;
39970;SDS011;35425;51.142;17.178;2023-03-20T04:23:57;4.75;;;3.80;;
39970;SDS011;35425;51.142;17.178;2023-03-20T04:26:24;4.22;;;3.83;;
39970;SDS011;35425;51.142;17.178;2023-03-20T04:28:52;4.30;;;3.90;;
39970;SDS011;35425;51.142;17.178;2023-03-20T04:31:19;3.70;;;3.40;;
39970;SDS011;35425;51.142;17.178;2023-03-20T04:33:45;4.68;;;4.22;;
39970;SDS011;35425;51.142;17.178;2023-03-20T04:36:17;4.50;;;4.10;;
39970;SDS011;35425;51.142;17.178;2023-03-20T04:38:43;3.75;;;3.25;;
39970;SDS011;35425;51.142;17.178;2023-03-20T04:41:10;3.88;;;3.47;;
39970;SDS011;35425;51.142;17.178;2023-03-20T04:43:37;4.20;;;3.80;;
39970;SDS011;35425;51.142;17.178;2023-03-20T04:46:09;3.80;;;3.50;;
39970;SDS011;35425;51.142;17.178;2023-03-20T04:48:36;3.63;;;3.28;;
39970;SDS011;35425;51.142;17.178;2023-03-20T04:51:02;3.80;;;3.50;;
39970;SDS011;35425;51.142;17.178;2023-03-20T04:53:29;4.28;;;3.88;;
39970;SDS011;35425;51.142;17.178;2023-03-20T04:55:56;3.45;;;3.15;;
39970;SDS011;35425;51.142;17.178;2023-03-20T04:58:26;3.80;;;3.45;;
39970;SDS011;35425;51.142;17.178;2023-03-20T05:00:54;4.18;;;3.78;;
39970;SDS011;35425;51.142;17.178;2023-03-20T05:03:20;3.97;;;3.58;;
39970;SDS011;35425;51.142;17.178;2023-03-20T05:05:49;3.60;;;3.30;;
39970;SDS011;35425;51.142;17.178;2023-03-20T05:08:16;4.00;;;3.60;;
39970;SDS011;35425;51.142;17.178;2023-03-20T05:10:43;3.60;;;3.30;;
39970;SDS011;35425;51.142;17.178;2023-03-20T05:13:10;3.72;;;3.33;;
39970;SDS011;35425;51.142;17.178;2023-03-20T05:15:36;3.60;;;3.30;;
39970;SDS011;35425;51.142;17.178;2023-03-20T05:18:03;3.28;;;2.97;;
39970;SDS011;35425;51.142;17.178;2023-03-20T05:20:30;4.00;;;3.60;;
39970;SDS011;35425;51.142;17.178;2023-03-20T05:22:57;3.53;;;3.03;;
39970;SDS011;35425;51.142;17.178;2023-03-20T05:25:24;4.35;;;3.40;;
39970;SDS011;35425;51.142;17.178;2023-03-20T05:27:51;3.30;;;3.00;;
39970;SDS011;35425;51.142;17.178;2023-03-20T05:30:18;3.33;;;3.00;;
39970;SDS011;35425;51.142;17.178;2023-03-20T05:32:45;3.78;;;3.47;;
39970;SDS011;35425;51.142;17.178;2023-03-20T05:35:11;3.50;;;3.20;;
39970;SDS011;35425;51.142;17.178;2023-03-20T05:37:38;3.63;;;3.33;;
39970;SDS011;35425;51.142;17.178;2023-03-20T05:40:05;3.88;;;3.47;;
39970;SDS011;35425;51.142;17.178;2023-03-20T05:42:32;4.07;;;3.40;;
39970;SDS011;35425;51.142;17.178;2023-03-20T05:44:59;3.30;;;3.00;;
39970;SDS011;35425;51.142;17.178;2023-03-20T05:47:26;4.22;;;3.65;;
39970;SDS011;35425;51.142;17.178;2023-03-20T05:49:54;3.80;;;3.22;;
39970;SDS011;35425;51.142;17.178;2023-03-20T05:52:21;3.97;;;3.58;;
39970;SDS011;35425;51.142;17.178;2023-03-20T05:54:48;3.65;;;3.35;;
39970;SDS011;35425;51.142;17.178;2023-03-20T05:57:15;4.20;;;3.50;;
39970;SDS011;35425;51.142;17.178;2023-03-20T05:59:42;3.58;;;3.28;;
39970;SDS011;35425;51.142;17.178;2023-03-20T06:02:09;4.10;;;3.70;;
39970;SDS011;35425;51.142;17.178;2023-03-20T06:04:36;4.63;;;3.72;;
39970;SDS011;35425;51.142;17.178;2023-03-20T06:07:03;4.10;;;3.70;;
39970;SDS011;35425;51.142;17.178;2023-03-20T06:09:30;4.43;;;3.42;;
39970;SDS011;35425;51.142;17.178;2023-03-20T06:11:57;3.85;;;3.50;;
39970;SDS011;35425;51.142;17.178;2023-03-20T06:14:24;4.22;;;3.60;;
39970;SDS011;35425;51.142;17.178;2023-03-20T06:16:51;4.13;;;3.70;;
39970;SDS011;35425;51.142;17.178;2023-03-20T06:19:19;4.40;;;3.97;;
39970;SDS011;35425;51.142;17.178;2023-03-20T06:21:47;3.75;;;3.40;;
39970;SDS011;35425;51.142;17.178;2023-03-20T06:24:15;3.92;;;3.58;;
39970;SDS011;35425;51.142;17.178;2023-03-20T06:26:41;4.00;;;3.35;;
39970;SDS011;35425;51.142;17.178;2023-03-20T06:29:08;3.70;;;3.35;;
39970;SDS011;35425;51.142;17.178;2023-03-20T06:31:35;3.80;;;3.13;;
39970;SDS011;35425;51.142;17.178;2023-03-20T06:34:02;4.28;;;3.88;;
39970;SDS011;35425;51.142;17.178;2023-03-20T06:36:29;3.83;;;3.47;;
39970;SDS011;35425;51.142;17.178;2023-03-20T06:38:57;4.15;;;3.30;;
39970;SDS011;35425;51.142;17.178;2023-03-20T06:41:24;3.72;;;3.33;;
39970;SDS011;35425;51.142;17.178;2023-03-20T06:44:00;3.78;;;3.38;;
39970;SDS011;35425;51.142;17.178;2023-03-20T06:46:27;3.83;;;3.10;;
39970;SDS011;35425;51.142;17.178;2023-03-20T06:48:54;3.50;;;3.10;;
39970;SDS011;35425;51.142;17.178;2023-03-20T06:51:21;3.50;;;3.20;;
39970;SDS011;35425;51.142;17.178;2023-03-20T06:53:48;3.30;;;2.95;;
39970;SDS011;35425;51.142;17.178;2023-03-20T06:56:15;3.33;;;3.03;;
39970;SDS011;35425;51.142;17.178;2023-03-20T06:58:45;3.30;;;3.00;;
39970;SDS011;35425;51.142;17.178;2023-03-20T07:01:13;3.22;;;2.92;;
39970;SDS011;35425;51.142;17.178;2023-03-20T07:03:45;3.53;;;3.17;;
39970;SDS011;35425;51.142;17.178;2023-03-20T07:06:12;3.80;;;3.13;;
39970;SDS011;35425;51.142;17.178;2023-03-20T07:08:39;3.20;;;2.88;;
39970;SDS011;35425;51.142;17.178;2023-03-20T07:11:13;2.80;;;2.50;;
39970;SDS011;35425;51.142;17.178;2023-03-20T07:13:40;4.13;;;2.85;;
39970;SDS011;35425;51.142;17.178;2023-03-20T07:16:07;3.30;;;3.00;;
39970;SDS011;35425;51.142;17.178;2023-03-20T07:18:34;3.47;;;3.17;;
39970;SDS011;35425;51.142;17.178;2023-03-20T07:21:02;3.75;;;3.17;;
39970;SDS011;35425;51.142;17.178;2023-03-20T07:23:29;3.20;;;2.70;;
39970;SDS011;35425;51.142;17.178;2023-03-20T07:25:57;2.97;;;2.63;;
39970;SDS011;35425;51.142;17.178;2023-03-20T07:28:24;2.53;;;2.33;;
39970;SDS011;35425;51.142;17.178;2023-03-20T07:30:51;2.75;;;2.45;;
39970;SDS011;35425;51.142;17.178;2023-03-20T07:33:21;2.80;;;2.50;;
39970;SDS011;35425;51.142;17.178;2023-03-20T07:35:52;2.72;;;2.53;;
39970;SDS011;35425;51.142;17.178;2023-03-20T07:38:20;2.78;;;2.50;;
39970;SDS011;35425;51.142;17.178;2023-03-20T07:40:47;2.63;;;2.42;;
39970;SDS011;35425;51.142;17.178;2023-03-20T07:43:20;2.50;;;2.30;;
39970;SDS011;35425;51.142;17.178;2023-03-20T07:45:50;3.08;;;2.53;;
39970;SDS011;35425;51.142;17.178;2023-03-20T07:48:17;3.38;;;2.80;;
39970;SDS011;35425;51.142;17.178;2023-03-20T07:50:44;2.70;;;2.50;;
39970;SDS011;35425;51.142;17.178;2023-03-20T07:53:11;3.08;;;2.70;;
39970;SDS011;35425;51.142;17.178;2023-03-20T07:55:37;3.17;;;2.60;;
39970;SDS011;35425;51.142;17.178;2023-03-20T07:58:04;3.10;;;2.80;;
39970;SDS011;35425;51.142;17.178;2023-03-20T08:00:31;2.45;;;2.25;;
39970;SDS011;35425;51.142;17.178;2023-03-20T08:02:58;2.40;;;2.15;;
39970;SDS011;35425;51.142;17.178;2023-03-20T08:05:25;2.55;;;2.35;;
39970;SDS011;35425;51.142;17.178;2023-03-20T08:07:53;2.35;;;2.10;;
39970;SDS011;35425;51.142;17.178;2023-03-20T08:10:20;2.40;;;2.20;;
39970;SDS011;35425;51.142;17.178;2023-03-20T08:12:47;2.95;;;2.33;;
39970;SDS011;35425;51.142;17.178;2023-03-20T08:15:14;2.25;;;2.05;;
39970;SDS011;35425;51.142;17.178;2023-03-20T08:17:41;2.60;;;2.30;;
39970;SDS011;35425;51.142;17.178;2023-03-20T08:20:09;2.35;;;2.15;;
39970;SDS011;35425;51.142;17.178;2023-03-20T08:22:36;2.67;;;2.30;;
39970;SDS011;35425;51.142;17.178;2023-03-20T08:25:03;2.50;;;2.08;;
39970;SDS011;35425;51.142;17.178;2023-03-20T08:27:31;2.83;;;2.53;;
39970;SDS011;35425;51.142;17.178;2023-03-20T08:29:57;2.08;;;1.85;;
39970;SDS011;35425;51.142;17.178;2023-03-20T08:32:25;2.95;;;2.30;;
39970;SDS011;35425;51.142;17.178;2023-03-20T08:34:52;2.80;;;1.90;;
39970;SDS011;35425;51.142;17.178;2023-03-20T08:37:21;2.75;;;2.00;;
39970;SDS011;35425;51.142;17.178;2023-03-20T08:39:48;1.90;;;1.70;;
39970;SDS011;35425;51.142;17.178;2023-03-20T08:42:15;2.88;;;2.10;;
39970;SDS011;35425;51.142;17.178;2023-03-20T08:44:42;2.45;;;2.00;;
39970;SDS011;35425;51.142;17.178;2023-03-20T08:47:09;2.15;;;1.80;;
39970;SDS011;35425;51.142;17.178;2023-03-20T08:49:37;2.38;;;2.17;;
39970;SDS011;35425;51.142;17.178;2023-03-20T08:52:04;2.17;;;1.98;;
39970;SDS011;35425;51.142;17.178;2023-03-20T08:54:31;1.92;;;1.60;;
39970;SDS011;35425;51.142;17.178;2023-03-20T08:56:59;2.05;;;1.80;;
39970;SDS011;35425;51.142;17.178;2023-03-20T08:59:26;2.28;;;1.65;;
39970;SDS011;35425;51.142;17.178;2023-03-20T09:01:52;3.08;;;1.88;;
39970;SDS011;35425;51.142;17.178;2023-03-20T09:04:22;2.72;;;2.05;;
39970;SDS011;35425;51.142;17.178;2023-03-20T09:06:49;1.95;;;1.73;;
39970;SDS011;35425;51.142;17.178;2023-03-20T09:09:17;2.92;;;1.75;;
39970;SDS011;35425;51.142;17.178;2023-03-20T09:11:45;2.35;;;1.90;;
39970;SDS011;35425;51.142;17.178;2023-03-20T09:14:16;2.38;;;2.10;;
39970;SDS011;35425;51.142;17.178;2023-03-20T09:16:42;2.17;;;1.95;;
39970;SDS011;35425;51.142;17.178;2023-03-20T09:19:09;2.25;;;2.05;;
39970;SDS011;35425;51.142;17.178;2023-03-20T09:21:36;1.77;;;1.67;;
39970;SDS011;35425;51.142;17.178;2023-03-20T09:24:03;2.40;;;1.90;;
39970;SDS011;35425;51.142;17.178;2023-03-20T09:26:30;1.92;;;1.77;;
39970;SDS011;35425;51.142;17.178;2023-03-20T09:28:57;2.08;;;1.42;;
39970;SDS011;35425;51.142;17.178;2023-03-20T09:31:24;2.20;;;2.00;;
39970;SDS011;35425;51.142;17.178;2023-03-20T09:33:51;1.70;;;1.60;;
39970;SDS011;35425;51.142;17.178;2023-03-20T09:36:18;2.05;;;1.50;;
39970;SDS011;35425;51.142;17.178;2023-03-20T09:38:45;2.22;;;1.70;;
39970;SDS011;35425;51.142;17.178;2023-03-20T09:41:14;1.77;;;1.45;;
39970;SDS011;35425;51.142;17.178;2023-03-20T09:44:19;1.87;;;1.53;;
39970;SDS011;35425;51.142;17.178;2023-03-20T09:51:46;2.17;;;1.98;;
39970;SDS011;35425;51.142;17.178;2023-03-20T09:54:24;2.08;;;1.70;;
39970;SDS011;35425;51.142;17.178;2023-03-20T09:56:52;2.10;;;1.90;;
39970;SDS011;35425;51.142;17.178;2023-03-20T09:59:22;2.33;;;2.00;;
39970;SDS011;35425;51.142;17.178;2023-03-20T10:01:54;2.47;;;1.75;;
39970;SDS011;35425;51.142;17.178;2023-03-20T10:04:23;2.03;;;1.80;;
39970;SDS011;35425;51.142;17.178;2023-03-20T10:06:51;1.65;;;1.55;;
39970;SDS011;35425;51.142;17.178;2023-03-20T10:09:23;1.70;;;1.60;;
39970;SDS011;35425;51.142;17.178;2023-03-20T10:14:26;2.10;;;1.85;;
39970;SDS011;35425;51.142;17.178;2023-03-20T10:17:12;2.45;;;1.77;;
39970;SDS011;35425;51.142;17.178;2023-03-20T10:22:22;2.10;;;1.90;;
39970;SDS011;35425;51.142;17.178;2023-03-20T10:27:23;1.83;;;1.67;;
39970;SDS011;35425;51.142;17.178;2023-03-20T10:34:50;2.13;;;1.92;;
39970;SDS011;35425;51.142;17.178;2023-03-20T10:40:13;2.03;;;1.58;;
39970;SDS011;35425;51.142;17.178;2023-03-20T10:42:44;1.70;;;1.60;;
39970;SDS011;35425;51.142;17.178;2023-03-20T10:45:24;2.47;;;2.05;;
39970;SDS011;35425;51.142;17.178;2023-03-20T10:47:53;1.75;;;1.60;;
39970;SDS011;35425;51.142;17.178;2023-03-20T10:50:29;1.90;;;1.80;;
39970;SDS011;35425;51.142;17.178;2023-03-20T10:53:00;2.25;;;1.90;;
39970;SDS011;35425;51.142;17.178;2023-03-20T10:55:29;2.17;;;1.85;;
39970;SDS011;35425;51.142;17.178;2023-03-20T11:00:56;1.73;;;1.63;;
39970;SDS011;35425;51.142;17.178;2023-03-20T11:03:27;2.00;;;1.80;;
39970;SDS011;35425;51.142;17.178;2023-03-20T11:05:56;1.98;;;1.73;;
39970;SDS011;35425;51.142;17.178;2023-03-20T11:08:36;1.90;;;1.80;;
39970;SDS011;35425;51.142;17.178;2023-03-20T11:11:03;1.70;;;1.60;;
39970;SDS011;35425;51.142;17.178;2023-03-20T11:13:43;1.85;;;1.70;;
39970;SDS011;35425;51.142;17.178;2023-03-20T11:16:20;1.60;;;1.50;;
39970;SDS011;35425;51.142;17.178;2023-03-20T11:18:47;1.85;;;1.63;;
39970;SDS011;35425;51.142;17.178;2023-03-20T11:21:32;1.67;;;1.42;;
39970;SDS011;35425;51.142;17.178;2023-03-20T11:24:04;1.70;;;1.60;;
39970;SDS011;35425;51.142;17.178;2023-03-20T11:26:34;1.60;;;1.50;;
39970;SDS011;35425;51.142;17.178;2023-03-20T11:29:01;1.60;;;1.50;;
39970;SDS011;35425;51.142;17.178;2023-03-20T11:31:37;2.95;;;1.98;;
39970;SDS011;35425;51.142;17.178;2023-03-20T11:34:14;1.75;;;1.52;;
39970;SDS011;35425;51.142;17.178;2023-03-20T11:39:34;2.63;;;1.55;;
39970;SDS011;35425;51.142;17.178;2023-03-20T11:42:03;2.08;;;1.88;;
39970;SDS011;35425;51.142;17.178;2023-03-20T11:44:32;1.63;;;1.52;;
39970;SDS011;35425;51.142;17.178;2023-03-20T11:47:02;1.90;;;1.73;;
39970;SDS011;35425;51.142;17.178;2023-03-20T11:49:43;1.60;;;1.50;;
39970;SDS011;35425;51.142;17.178;2023-03-20T11:52:14;1.60;;;1.50;;
39970;SDS011;35425;51.142;17.178;2023-03-20T11:54:49;1.52;;;1.42;;
39970;SDS011;35425;51.142;17.178;2023-03-20T11:57:26;2.38;;;1.80;;
39970;SDS011;35425;51.142;17.178;2023-03-20T11:59:54;1.70;;;1.60;;
39970;SDS011;35425;51.142;17.178;2023-03-20T12:02:22;1.70;;;1.23;;
39970;SDS011;35425;51.142;17.178;2023-03-20T12:04:49;2.40;;;1.80;;
39970;SDS011;35425;51.142;17.178;2023-03-20T12:07:25;1.92;;;1.70;;
39970;SDS011;35425;51.142;17.178;2023-03-20T12:10:06;1.58;;;1.48;;
39970;SDS011;35425;51.142;17.178;2023-03-20T12:15:09;1.60;;;1.50;;
39970;SDS011;35425;51.142;17.178;2023-03-20T12:17:43;1.55;;;1.45;;
39970;SDS011;35425;51.142;17.178;2023-03-20T12:20:15;1.88;;;1.15;;
39970;SDS011;35425;51.142;17.178;2023-03-20T12:22:57;1.40;;;1.30;;
39970;SDS011;35425;51.142;17.178;2023-03-20T12:25:26;1.55;;;1.45;;
39970;SDS011;35425;51.142;17.178;2023-03-20T12:30:33;2.10;;;1.90;;
39970;SDS011;35425;51.142;17.178;2023-03-20T12:36:02;2.33;;;1.48;;
39970;SDS011;35425;51.142;17.178;2023-03-20T12:38:30;1.30;;;1.20;;
39970;SDS011;35425;51.142;17.178;2023-03-20T12:46:23;1.50;;;1.35;;
39970;SDS011;35425;51.142;17.178;2023-03-20T12:49:05;1.40;;;1.30;;
39970;SDS011;35425;51.142;17.178;2023-03-20T12:57:00;1.65;;;1.50;;
39970;SDS011;35425;51.142;17.178;2023-03-20T13:10:21;3.33;;;1.60;;
39970;SDS011;35425;51.142;17.178;2023-03-20T13:15:28;3.50;;;1.35;;
39970;SDS011;35425;51.142;17.178;2023-03-20T13:20:27;3.15;;;1.20;;
39970;SDS011;35425;51.142;17.178;2023-03-20T13:30:52;1.30;;;0.90;;
39970;SDS011;35425;51.142;17.178;2023-03-20T13:33:32;1.40;;;0.90;;
39970;SDS011;35425;51.142;17.178;2023-03-20T13:36:02;1.85;;;1.10;;
39970;SDS011;35425;51.142;17.178;2023-03-20T13:38:34;2.15;;;0.90;;
39970;SDS011;35425;51.142;17.178;2023-03-20T13:41:03;2.45;;;1.30;;
39970;SDS011;35425;51.142;17.178;2023-03-20T13:46:17;1.90;;;0.90;;
39970;SDS011;35425;51.142;17.178;2023-03-20T13:48:44;2.10;;;1.02;;
39970;SDS011;35425;51.142;17.178;2023-03-20T13:53:56;1.33;;;1.02;;
39970;SDS011;35425;51.142;17.178;2023-03-20T14:01:47;2.00;;;1.10;;
39970;SDS011;35425;51.142;17.178;2023-03-20T14:04:17;0.73;;;0.70;;
39970;SDS011;35425;51.142;17.178;2023-03-20T14:06:49;1.20;;;0.90;;
39970;SDS011;35425;51.142;17.178;2023-03-20T14:09:35;1.10;;;0.90;;
39970;SDS011;35425;51.142;17.178;2023-03-20T14:12:05;1.13;;;0.98;;
39970;SDS011;35425;51.142;17.178;2023-03-20T14:14:40;1.50;;;0.70;;
39970;SDS011;35425;51.142;17.178;2023-03-20T14:17:18;1.67;;;1.00;;
39970;SDS011;35425;51.142;17.178;2023-03-20T14:19:46;0.80;;;0.80;;
39970;SDS011;35425;51.142;17.178;2023-03-20T14:22:35;1.63;;;0.75;;
39970;SDS011;35425;51.142;17.178;2023-03-20T14:25:05;2.45;;;1.52;;
39970;SDS011;35425;51.142;17.178;2023-03-20T14:27:34;0.95;;;0.80;;
39970;SDS011;35425;51.142;17.178;2023-03-20T14:33:05;0.80;;;0.80;;
39970;SDS011;35425;51.142;17.178;2023-03-20T14:35:36;1.10;;;1.00;;
39970;SDS011;35425;51.142;17.178;2023-03-20T14:43:44;1.15;;;1.00;;
39970;SDS011;35425;51.142;17.178;2023-03-20T14:49:01;1.05;;;0.95;;
39970;SDS011;35425;51.142;17.178;2023-03-20T14:52:08;1.27;;;0.98;;
39970;SDS011;35425;51.142;17.178;2023-03-20T14:54:24;1.70;;;1.08;;
39970;SDS011;35425;51.142;17.178;2023-03-20T14:56:52;1.30;;;0.90;;
39970;SDS011;35425;51.142;17.178;2023-03-20T14:59:19;1.60;;;1.10;;
39970;SDS011;35425;51.142;17.178;2023-03-20T15:01:58;1.27;;;1.02;;
39970;SDS011;35425;51.142;17.178;2023-03-20T15:04:38;1.48;;;1.20;;
39970;SDS011;35425;51.142;17.178;2023-03-20T15:07:12;1.27;;;1.00;;
39970;SDS011;35425;51.142;17.178;2023-03-20T15:09:42;1.25;;;1.15;;
39970;SDS011;35425;51.142;17.178;2023-03-20T15:12:13;1.30;;;1.15;;
39970;SDS011;35425;51.142;17.178;2023-03-20T15:14:59;1.85;;;1.40;;
39970;SDS011;35425;51.142;17.178;2023-03-20T15:17:39;1.30;;;0.90;;
39970;SDS011;35425;51.142;17.178;2023-03-20T15:20:18;1.38;;;1.02;;
39970;SDS011;35425;51.142;17.178;2023-03-20T15:23:07;1.70;;;1.15;;
39970;SDS011;35425;51.142;17.178;2023-03-20T15:25:34;1.50;;;1.10;;
39970;SDS011;35425;51.142;17.178;2023-03-20T15:28:10;1.42;;;1.10;;
39970;SDS011;35425;51.142;17.178;2023-03-20T15:30:38;1.10;;;1.00;;
39970;SDS011;35425;51.142;17.178;2023-03-20T15:33:06;0.90;;;0.90;;
39970;SDS011;35425;51.142;17.178;2023-03-20T15:35:33;1.30;;;1.20;;
39970;SDS011;35425;51.142;17.178;2023-03-20T15:38:04;1.30;;;1.00;;
39970;SDS011;35425;51.142;17.178;2023-03-20T15:43:20;1.63;;;1.40;;
39970;SDS011;35425;51.142;17.178;2023-03-20T15:45:47;1.38;;;1.27;;
39970;SDS011;35425;51.142;17.178;2023-03-20T15:48:16;1.20;;;0.90;;
39970;SDS011;35425;51.142;17.178;2023-03-20T15:50:44;1.13;;;0.85;;
39970;SDS011;35425;51.142;17.178;2023-03-20T15:53:18;1.23;;;1.08;;
39970;SDS011;35425;51.142;17.178;2023-03-20T15:55:49;1.37;;;1.23;;
39970;SDS011;35425;51.142;17.178;2023-03-20T15:58:32;1.27;;;1.15;;
39970;SDS011;35425;51.142;17.178;2023-03-20T16:01:00;1.65;;;1.10;;
39970;SDS011;35425;51.142;17.178;2023-03-20T16:03:31;1.13;;;0.85;;
39970;SDS011;35425;51.142;17.178;2023-03-20T16:06:00;1.33;;;1.00;;
39970;SDS011;35425;51.142;17.178;2023-03-20T16:08:28;1.23;;;0.93;;
39970;SDS011;35425;51.142;17.178;2023-03-20T16:11:06;0.90;;;0.90;;
39970;SDS011;35425;51.142;17.178;2023-03-20T16:13:37;0.82;;;0.70;;
39970;SDS011;35425;51.142;17.178;2023-03-20T16:16:05;0.85;;;0.85;;
39970;SDS011;35425;51.142;17.178;2023-03-20T16:18:36;0.88;;;0.88;;
39970;SDS011;35425;51.142;17.178;2023-03-20T16:21:04;0.80;;;0.80;;
39970;SDS011;35425;51.142;17.178;2023-03-20T16:23:33;1.10;;;1.00;;
39970;SDS011;35425;51.142;17.178;2023-03-20T16:26:02;3.08;;;0.90;;
39970;SDS011;35425;51.142;17.178;2023-03-20T16:28:34;1.08;;;0.98;;
39970;SDS011;35425;51.142;17.178;2023-03-20T16:31:09;1.10;;;0.90;;
39970;SDS011;35425;51.142;17.178;2023-03-20T16:33:37;0.82;;;0.80;;
39970;SDS011;35425;51.142;17.178;2023-03-20T16:36:05;1.10;;;0.82;;
39970;SDS011;35425;51.142;17.178;2023-03-20T16:38:33;1.10;;;0.88;;
39970;SDS011;35425;51.142;17.178;2023-03-20T16:41:21;0.70;;;0.70;;
39970;SDS011;35425;51.142;17.178;2023-03-20T16:43:50;0.80;;;0.80;;
39970;SDS011;35425;51.142;17.178;2023-03-20T16:46:21;0.85;;;0.85;;
39970;SDS011;35425;51.142;17.178;2023-03-20T16:49:01;0.88;;;0.70;;
39970;SDS011;35425;51.142;17.178;2023-03-20T16:51:35;1.00;;;0.80;;
39970;SDS011;35425;51.142;17.178;2023-03-20T16:54:02;0.80;;;0.70;;
39970;SDS011;35425;51.142;17.178;2023-03-20T16:56:36;1.05;;;0.75;;
39970;SDS011;35425;51.142;17.178;2023-03-20T16:59:07;1.17;;;0.88;;
39970;SDS011;35425;51.142;17.178;2023-03-20T17:01:34;1.05;;;0.98;;
39970;SDS011;35425;51.142;17.178;2023-03-20T17:04:13;0.73;;;0.63;;
39970;SDS011;35425;51.142;17.178;2023-03-20T17:07:00;0.80;;;0.80;;
39970;SDS011;35425;51.142;17.178;2023-03-20T17:09:30;0.60;;;0.60;;